Time;durP1;ratioP1;P1;durP2;ratioP2;P2;SDS_P1;SDS_P2;PMS_P1;PMS_P2;Temp;Humidity;BMP_temperature;BMP_pressure;BME280_temperature;BME280_humidity;BME280_pressure;Samples;Min_cycle;Max_cycle;Signal;HPM_P1;HPM_P2
2022/10/28 04:02:35;;;;;;;8.20;4.10;;;;;;;;;;4971256;28;20473;-75
2022/10/28 04:05:00;;;;;;;6.47;3.30;;;11.60;96.30;;;;;;4971210;28;20964;-75
2022/10/28 04:07:26;;;;;;;5.03;3.10;;;11.60;96.30;;;;;;4974149;28;20457;-77
2022/10/28 04:09:51;;;;;;;11.43;3.57;;;11.50;96.30;;;;;;4974635;28;20266;-76
2022/10/28 04:12:17;;;;;;;7.20;3.73;;;11.40;96.30;;;;;;4974749;28;20187;-75
2022/10/28 04:14:43;;;;;;;7.73;3.63;;;11.40;96.30;;;;;;4975308;28;20186;-75
2022/10/28 04:17:09;;;;;;;6.53;3.30;;;11.40;96.30;;;;;;4974967;28;20424;-76
2022/10/28 04:19:34;;;;;;;9.10;3.77;;;11.40;96.30;;;;;;4976548;28;20200;-75
2022/10/28 06:43:56;;;;;;;;;;;;;;;;;;;;;
2022/10/28 07:00:36;;;;;;;8.97;5.07;;;12.90;96.30;;;;;;4993205;28;20572;-76
2022/10/28 07:03:01;;;;;;;10.90;3.70;;;12.90;96.30;;;;;;4994871;28;20413;-76
2022/10/28 07:05:27;;;;;;;9.00;4.67;;;13.00;96.30;;;;;;4986018;28;20201;-77
2022/10/28 07:07:53;;;;;;;11.50;5.80;;;;;;;;;;4989428;28;20221;-76
2022/10/28 07:10:19;;;;;;;10.93;4.93;;;13.30;96.30;;;;;;5007173;28;20242;-77
2022/10/28 07:12:44;;;;;;;10.57;6.23;;;13.40;96.30;;;;;;4994411;28;20504;-76
2022/10/28 07:15:10;;;;;;;5.73;3.90;;;13.50;96.30;;;;;;4995009;28;20625;-76
2022/10/28 07:17:35;;;;;;;8.80;4.17;;;13.80;96.30;;;;;;4994573;28;20188;-76
2022/10/28 07:20:01;;;;;;;19.63;3.80;;;14.00;96.30;;;;;;4995172;28;20174;-76
2022/10/28 07:22:27;;;;;;;13.83;5.83;;;;;;;;;;4995028;28;20262;-76
2022/10/28 07:24:53;;;;;;;7.43;3.80;;;14.40;96.30;;;;;;5014130;28;20913;-76
2022/10/28 07:27:18;;;;;;;7.90;4.50;;;14.60;96.30;;;;;;5013977;28;20423;-76
2022/10/28 07:29:44;;;;;;;10.53;4.70;;;;;;;;;;5014483;28;20227;-76
2022/10/28 07:32:10;;;;;;;9.10;4.57;;;14.90;96.30;;;;;;4996720;28;20212;-77
2022/10/28 07:34:35;;;;;;;10.60;4.77;;;15.00;96.30;;;;;;5014438;28;20443;-76
2022/10/28 07:37:01;;;;;;;7.90;4.20;;;15.30;96.30;;;;;;5013733;28;20181;-76
2022/10/28 07:39:26;;;;;;;7.43;1.70;;;15.50;96.30;;;;;;4996768;28;20264;-77
2022/10/28 07:41:52;;;;;;;8.90;2.33;;;16.10;96.30;;;;;;5013988;28;20196;-76
2022/10/28 07:44:17;;;;;;;8.80;2.33;;;16.60;96.30;;;;;;4997044;28;20864;-78
2022/10/28 07:46:43;;;;;;;9.43;2.60;;;17.00;96.30;;;;;;4963487;28;20174;-78
2022/10/28 07:49:08;;;;;;;8.40;2.03;;;17.30;96.30;;;;;;4991651;28;20173;-78
2022/10/28 07:51:34;;;;;;;4.20;1.80;;;17.60;96.30;;;;;;4974262;28;20194;-78
2022/10/28 07:53:59;;;;;;;8.27;2.03;;;17.80;96.30;;;;;;4987152;28;20239;-77
2022/10/28 07:56:25;;;;;;;8.87;2.40;;;18.00;96.30;;;;;;4986811;28;20185;-77
2022/10/28 07:58:51;;;;;;;8.70;1.70;;;18.20;96.30;;;;;;4989370;28;20673;-77
2022/10/28 08:01:18;;;;;;;5.83;1.60;;;18.40;96.30;;;;;;4990772;28;20202;-78
2022/10/28 08:03:46;;;;;;;8.30;1.97;;;18.60;96.30;;;;;;4982922;28;20209;-78
2022/10/28 08:06:16;;;;;;;4.93;1.50;;;18.70;96.30;;;;;;4986052;28;20425;-78
2022/10/28 08:08:42;;;;;;;7.53;2.17;;;18.80;96.30;;;;;;4985290;28;20932;-78
2022/10/28 08:11:09;;;;;;;11.80;2.17;;;18.80;96.30;;;;;;4991226;28;20444;-77
2022/10/28 08:13:34;;;;;;;6.73;1.83;;;18.90;96.30;;;;;;4980805;28;20416;-78
2022/10/28 08:16:00;;;;;;;5.00;1.83;;;18.90;96.30;;;;;;4974389;28;20409;-78
2022/10/28 08:18:25;;;;;;;6.50;1.77;;;18.90;96.30;;;;;;4973959;28;20205;-78
2022/10/28 08:20:51;;;;;;;4.43;1.67;;;;;;;;;;4974259;28;20194;-78
2022/10/28 08:23:16;;;;;;;12.50;1.83;;;19.40;96.30;;;;;;4963944;28;20185;-78
2022/10/28 08:25:49;;;;;;;5.03;1.43;;;19.60;96.30;;;;;;4959044;28;20430;-78
2022/10/28 08:28:15;;;;;;;4.77;1.80;;;19.80;96.30;;;;;;4982209;28;20264;-78
2022/10/28 08:30:41;;;;;;;15.60;2.50;;;20.10;96.30;;;;;;4982380;28;20465;-78
2022/10/28 08:33:06;;;;;;;8.90;1.80;;;20.20;96.30;;;;;;4985784;28;20246;-78
2022/10/28 08:35:34;;;;;;;4.47;1.60;;;20.30;96.30;;;;;;4980087;28;20213;-78
2022/10/28 08:37:59;;;;;;;10.73;2.50;;;20.50;96.30;;;;;;4955915;28;20170;-78
2022/10/28 08:40:41;;;;;;;10.03;1.83;;;20.50;96.30;;;;;;4973722;28;21004;-78
2022/10/28 08:43:25;;;;;;;5.03;1.90;;;20.60;96.30;;;;;;4956354;28;20206;-78
2022/10/28 08:46:09;;;;;;;8.53;2.20;;;20.50;96.30;;;;;;4956091;28;20913;-78
2022/10/28 08:48:35;;;;;;;6.20;2.10;;;20.40;96.30;;;;;;4987004;28;20419;-77
2022/10/28 08:51:10;;;;;;;12.60;2.50;;;20.50;96.30;;;;;;4992671;28;20463;-76
2022/10/28 08:53:56;;;;;;;4.17;1.67;;;20.60;96.30;;;;;;4993058;28;20408;-77
2022/10/28 08:56:44;;;;;;;4.50;1.93;;;20.60;96.30;;;;;;4993161;28;20400;-77
2022/10/28 08:59:15;;;;;;;6.50;2.10;;;20.70;96.30;;;;;;4993072;28;20804;-76
2022/10/28 09:01:47;;;;;;;9.13;2.20;;;20.80;96.30;;;;;;4993029;28;20518;-76
2022/10/28 09:04:36;;;;;;;6.50;1.67;;;20.90;96.30;;;;;;4988183;28;21238;-76
2022/10/28 09:07:03;;;;;;;8.27;2.20;;;20.80;96.30;;;;;;4983997;28;20413;-77
2022/10/28 09:09:29;;;;;;;11.70;2.33;;;20.90;96.30;;;;;;4984954;28;20483;-77
2022/10/28 09:12:25;;;;;;;10.00;1.87;;;20.90;96.30;;;;;;4984195;28;20436;-76
2022/10/28 09:14:56;;;;;;;6.57;1.87;;;20.90;96.30;;;;;;4983075;28;20413;-77
2022/10/28 09:17:33;;;;;;;6.03;2.07;;;21.10;96.30;;;;;;4983323;28;20413;-76
2022/10/28 09:20:14;;;;;;;8.13;1.90;;;21.10;96.30;;;;;;4984867;28;20424;-76
2022/10/28 09:23:01;;;;;;;12.93;1.77;;;21.10;96.30;;;;;;4976992;28;20829;-76
2022/10/28 09:25:41;;;;;;;11.53;2.80;;;21.20;96.30;;;;;;4983669;28;20472;-76
2022/10/28 09:28:52;;;;;;;5.80;2.50;;;21.40;96.30;;;;;;4985115;28;20836;-77
2022/10/28 09:31:22;;;;;;;6.67;2.07;;;21.60;96.30;;;;;;4965211;28;20964;-78
2022/10/28 09:33:50;;;;;;;4.93;2.20;;;21.90;96.30;;;;;;4992122;28;21103;-78
2022/10/28 09:36:27;;;;;;;9.90;1.90;;;22.10;96.30;;;;;;4991426;28;20432;-78
2022/10/28 09:38:56;;;;;;;9.03;3.10;;;22.30;96.30;;;;;;4991448;28;20416;-78
2022/10/28 09:41:30;;;;;;;7.80;2.10;;;22.50;96.30;;;;;;4974254;28;20494;-79
2022/10/28 09:44:10;;;;;;;6.17;2.20;;;22.60;96.30;;;;;;4992943;28;20476;-79
2022/10/28 09:46:37;;;;;;;4.20;2.23;;;22.80;96.30;;;;;;4992789;28;20417;-78
2022/10/28 09:49:10;;;;;;;7.50;2.40;;;22.70;96.30;;;;;;4992505;28;20417;-78
2022/10/28 09:51:58;;;;;;;8.90;2.40;;;22.70;96.30;;;;;;4992744;28;20439;-78
2022/10/28 09:54:33;;;;;;;8.70;2.00;;;22.80;96.30;;;;;;4992726;28;20417;-78
2022/10/28 09:56:59;;;;;;;8.30;2.73;;;22.80;96.30;;;;;;4992063;28;20404;-78
2022/10/28 09:59:25;;;;;;;3.53;1.47;;;;;;;;;;4992262;28;20528;-77
2022/10/28 10:01:51;;;;;;;7.10;2.03;;;23.20;96.30;;;;;;4990336;28;20528;-77
2022/10/28 10:04:24;;;;;;;5.83;2.03;;;23.20;96.30;;;;;;4991785;28;20197;-77
2022/10/28 10:06:55;;;;;;;5.73;2.50;;;23.20;96.30;;;;;;4991034;28;20576;-77
2022/10/28 10:09:27;;;;;;;9.73;2.50;;;23.70;96.20;;;;;;4991396;28;20416;-77
2022/10/28 10:11:58;;;;;;;5.87;1.70;;;23.90;95.20;;;;;;4991473;28;20487;-77
2022/10/28 10:14:55;;;;;;;12.87;3.90;;;23.70;95.60;;;;;;4991739;28;20421;-78
2022/10/28 10:17:25;;;;;;;5.77;1.90;;;23.50;96.30;;;;;;4990351;28;20461;-78
2022/10/28 10:19:57;;;;;;;7.77;2.47;;;23.30;96.30;;;;;;4971891;28;20431;-77
2022/10/28 10:24:59;;;;;;;5.20;2.20;;;23.10;96.30;;;;;;5092544;23;1034154;-77
2022/10/28 10:27:27;;;;;;;6.13;2.33;;;23.30;96.30;;;;;;5010825;28;20185;-77
2022/10/28 10:29:54;;;;;;;9.20;2.23;;;24.00;96.30;;;;;;5011210;28;20455;-77
2022/10/28 10:32:32;;;;;;;15.53;2.80;;;24.90;94.60;;;;;;4993947;28;20440;-76
2022/10/28 10:35:28;;;;;;;12.23;3.73;;;25.50;91.70;;;;;;4991476;28;20409;-76
2022/10/28 10:37:56;;;;;;;3.63;1.63;;;25.50;93.70;;;;;;4991654;28;20395;-77
2022/10/28 10:40:32;;;;;;;11.27;1.83;;;25.20;92.80;;;;;;4991990;28;20412;-77
2022/10/28 10:43:36;;;;;;;9.57;2.60;;;25.00;94.80;;;;;;4992233;28;20419;-76
2022/10/28 10:46:13;;;;;;;10.40;2.20;;;24.70;94.00;;;;;;4992117;28;20412;-77
2022/10/28 10:48:39;;;;;;;14.63;2.80;;;24.30;93.10;;;;;;4992850;28;20876;-76
2022/10/28 10:51:26;;;;;;;5.47;1.97;;;24.20;94.20;;;;;;4978131;28;20451;-77
2022/10/28 10:53:56;;;;;;;9.50;2.40;;;24.30;94.40;;;;;;4978043;28;20203;-76
2022/10/28 10:56:25;;;;;;;8.40;2.20;;;25.00;91.40;;;;;;4995541;28;20463;-76
2022/10/28 10:58:53;;;;;;;5.83;2.00;;;25.40;90.90;;;;;;4977513;28;20444;-77
2022/10/28 11:01:45;;;;;;;9.13;1.73;;;25.50;89.70;;;;;;4977908;28;20928;-76
2022/10/28 11:04:19;;;;;;;6.80;2.13;;;25.70;90.00;;;;;;4990210;28;20522;-77
2022/10/28 11:06:50;;;;;;;9.93;2.20;;;25.70;87.20;;;;;;4994715;28;20420;-77
2022/10/28 11:09:34;;;;;;;10.53;2.53;;;25.30;87.60;;;;;;4995284;28;20405;-77
2022/10/28 11:12:12;;;;;;;9.40;2.07;;;24.90;91.00;;;;;;4995246;28;20432;-76
2022/10/28 11:14:38;;;;;;;8.50;2.10;;;;;;;;;;4977535;28;20435;-76
2022/10/28 11:17:25;;;;;;;9.27;2.33;;;24.60;91.20;;;;;;4994560;28;20416;-76
2022/10/28 11:19:55;;;;;;;5.63;2.23;;;24.40;89.90;;;;;;4995069;28;20268;-76
2022/10/28 11:22:51;;;;;;;9.53;2.77;;;24.20;89.90;;;;;;4994954;28;20466;-76
2022/10/28 11:25:37;;;;;;;6.67;2.00;;;24.20;90.20;;;;;;4994598;28;20809;-76
2022/10/28 11:28:24;;;;;;;8.23;2.10;;;24.10;90.00;;;;;;4957743;28;20414;-77
2022/10/28 11:31:11;;;;;;;8.13;2.10;;;24.00;89.30;;;;;;4992432;28;20452;-76
2022/10/28 11:34:04;;;;;;;7.40;2.03;;;24.00;89.90;;;;;;4975310;28;20463;-77
2022/10/28 11:37:00;;;;;;;8.77;1.87;;;24.00;89.30;;;;;;4964796;28;20807;-76
2022/10/28 11:39:35;;;;;;;6.37;2.40;;;24.00;88.60;;;;;;4967036;28;20456;-76
2022/10/28 11:42:26;;;;;;;12.00;1.93;;;24.20;88.60;;;;;;4975203;28;20924;-77
2022/10/28 11:45:11;;;;;;;12.10;2.80;;;24.20;88.80;;;;;;4990205;28;20465;-77
2022/10/28 11:47:52;;;;;;;17.50;2.37;;;24.30;88.80;;;;;;4974610;28;20410;-77
2022/10/28 11:50:18;;;;;;;6.60;2.13;;;;;;;;;;4975332;28;20833;-77
2022/10/28 11:53:14;;;;;;;7.97;2.33;;;24.30;89.80;;;;;;4975191;28;20500;-77
2022/10/28 11:55:51;;;;;;;7.90;1.90;;;24.40;88.20;;;;;;4975032;28;20248;-77
2022/10/28 11:58:37;;;;;;;7.57;2.40;;;24.40;89.80;;;;;;4974637;28;20409;-77
2022/10/28 12:01:26;;;;;;;9.87;2.37;;;24.40;88.20;;;;;;4974484;28;20480;-78
2022/10/28 12:04:12;;;;;;;5.30;1.90;;;24.60;88.00;;;;;;4974695;28;20457;-77
2022/10/28 12:07:16;;;;;;;5.73;1.80;;;24.50;86.60;;;;;;4974522;28;20398;-78
2022/10/28 12:10:08;;;;;;;10.40;2.43;;;24.50;87.80;;;;;;4974712;28;20417;-77
2022/10/28 12:12:52;;;;;;;8.50;1.83;;;25.10;88.10;;;;;;4974453;28;20447;-77
2022/10/28 12:15:43;;;;;;;7.03;1.67;;;25.70;85.90;;;;;;4974428;28;20821;-76
2022/10/28 12:18:17;;;;;;;10.63;2.10;;;26.20;83.80;;;;;;4974100;28;20974;-77
2022/10/28 12:21:10;;;;;;;5.43;2.13;;;26.30;83.60;;;;;;4957265;28;20440;-77
2022/10/28 12:23:37;;;;;;;12.20;2.50;;;26.20;82.80;;;;;;4974463;28;20400;-78
2022/10/28 12:26:07;;;;;;;7.57;2.87;;;26.20;81.90;;;;;;4974359;28;20428;-77
2022/10/28 12:28:39;;;;;;;9.20;1.60;;;26.10;82.50;;;;;;4973882;28;20484;-77
2022/10/28 12:31:19;;;;;;;9.93;2.20;;;25.90;84.00;;;;;;4974312;28;20520;-77
2022/10/28 12:33:48;;;;;;;4.13;1.50;;;25.70;84.60;;;;;;4974385;28;20421;-76
2022/10/28 12:36:33;;;;;;;7.00;1.97;;;25.70;85.90;;;;;;4956904;28;20420;-77
2022/10/28 12:39:19;;;;;;;12.37;2.13;;;25.30;86.60;;;;;;4973669;28;20417;-77
2022/10/28 12:42:15;;;;;;;6.17;1.87;;;25.30;87.30;;;;;;4974079;28;20472;-77
2022/10/28 12:44:41;;;;;;;7.50;2.07;;;25.30;88.40;;;;;;4974128;28;20456;-78
2022/10/28 12:47:22;;;;;;;13.30;3.23;;;25.20;86.50;;;;;;4967419;28;20519;-76
2022/10/28 12:50:10;;;;;;;16.03;2.27;;;25.30;87.10;;;;;;4992353;28;20916;-75
2022/10/28 12:53:02;;;;;;;4.43;1.73;;;25.20;86.20;;;;;;4989781;28;20398;-77
2022/10/28 12:55:43;;;;;;;8.33;2.23;;;25.10;87.70;;;;;;4991126;28;20428;-76
2022/10/28 12:58:30;;;;;;;6.80;1.80;;;25.00;87.50;;;;;;4988267;28;20408;-76
2022/10/28 13:01:24;;;;;;;16.03;2.17;;;24.90;88.20;;;;;;4991963;28;20990;-77
2022/10/28 13:03:49;;;;;;;6.77;2.10;;;24.90;89.20;;;;;;4989742;28;20496;-77
2022/10/28 13:06:20;;;;;;;7.57;2.00;;;25.10;88.50;;;;;;4990361;28;20448;-77
2022/10/28 13:08:55;;;;;;;11.17;2.90;;;25.30;87.40;;;;;;4989079;28;20174;-77
2022/10/28 13:11:20;;;;;;;11.03;1.90;;;25.20;89.00;;;;;;4991298;28;20430;-77
2022/10/28 13:14:28;;;;;;;9.50;2.30;;;25.20;88.90;;;;;;4992561;28;20438;-77
2022/10/28 13:17:15;;;;;;;7.37;1.90;;;24.70;89.10;;;;;;4990918;28;20823;-76
2022/10/28 13:19:46;;;;;;;10.03;2.57;;;24.50;89.80;;;;;;4972416;28;20416;-76
2022/10/28 13:22:38;;;;;;;8.07;2.00;;;24.60;90.20;;;;;;4990387;28;20436;-78
2022/10/28 13:25:35;;;;;;;6.20;2.23;;;24.50;89.50;;;;;;4973103;28;20465;-76
2022/10/28 13:28:01;;;;;;;9.07;2.43;;;24.20;88.80;;;;;;4989676;28;20422;-77
2022/10/28 13:30:30;;;;;;;9.53;2.20;;;24.00;89.40;;;;;;4992442;28;20856;-77
2022/10/28 13:33:08;;;;;;;9.23;1.97;;;23.80;90.90;;;;;;4992329;28;20405;-76
2022/10/28 13:35:35;;;;;;;10.13;2.23;;;23.70;90.00;;;;;;4992280;28;20427;-77
2022/10/28 13:38:03;;;;;;;7.90;2.53;;;23.40;91.00;;;;;;4991787;28;20408;-77
2022/10/28 13:40:29;;;;;;;9.97;3.43;;;23.20;90.50;;;;;;4992549;28;20424;-77
2022/10/28 13:42:54;;;;;;;6.67;2.00;;;23.10;90.90;;;;;;4984986;28;20416;-77
2022/10/28 13:45:43;;;;;;;8.33;2.60;;;23.00;90.80;;;;;;4992542;28;20284;-77
2022/10/28 13:48:27;;;;;;;10.33;2.10;;;23.10;91.60;;;;;;4991359;28;20169;-76
2022/10/28 13:51:12;;;;;;;12.70;2.60;;;23.00;91.70;;;;;;4992284;28;21041;-77
2022/10/28 13:53:44;;;;;;;12.00;3.07;;;22.80;91.80;;;;;;4992596;28;20452;-77
2022/10/28 13:56:42;;;;;;;11.23;2.27;;;22.80;91.00;;;;;;4992971;28;20413;-77
2022/10/28 13:59:10;;;;;;;7.63;2.37;;;22.70;92.30;;;;;;4992672;28;20397;-77
2022/10/28 14:01:46;;;;;;;10.73;3.07;;;22.70;92.20;;;;;;4991995;28;20431;-76
2022/10/28 14:04:34;;;;;;;5.20;1.80;;;22.70;93.20;;;;;;4991989;28;20510;-76
2022/10/28 14:07:09;;;;;;;11.67;2.90;;;22.60;93.20;;;;;;4976219;28;20456;-78
2022/10/28 14:09:36;;;;;;;12.53;2.60;;;22.60;93.50;;;;;;4992377;28;20896;-76
2022/10/28 14:12:24;;;;;;;5.10;2.40;;;22.60;92.40;;;;;;4992017;28;20452;-77
2022/10/28 14:15:17;;;;;;;12.63;4.03;;;22.60;91.80;;;;;;4976749;28;20503;-76
2022/10/28 14:17:54;;;;;;;18.53;4.40;;;22.40;95.20;;;;;;4974012;28;20444;-76
2022/10/28 14:20:40;;;;;;;9.80;4.00;;;22.20;96.00;;;;;;4974128;28;20519;-77
2022/10/28 14:23:21;;;;;;;14.93;5.03;;;22.20;94.30;;;;;;4988070;28;20409;-77
2022/10/28 14:25:50;;;;;;;6.77;2.80;;;22.20;93.90;;;;;;4992469;28;20598;-77
2022/10/28 14:28:27;;;;;;;11.73;2.73;;;22.20;93.80;;;;;;4994356;28;20765;-76
2022/10/28 14:31:10;;;;;;;12.37;4.03;;;22.10;93.80;;;;;;4993304;28;20955;-77
2022/10/28 14:33:55;;;;;;;11.70;2.97;;;22.00;93.80;;;;;;4993477;28;20470;-76
2022/10/28 14:36:39;;;;;;;9.20;1.93;;;22.10;93.10;;;;;;4975140;28;20776;-77
2022/10/28 14:39:18;;;;;;;9.87;2.43;;;22.00;92.90;;;;;;4991667;28;20467;-77
2022/10/28 14:42:27;;;;;;;6.43;2.20;;;21.90;93.80;;;;;;4991612;28;20475;-76
2022/10/28 14:45:22;;;;;;;7.10;2.13;;;21.80;92.70;;;;;;4992703;28;20475;-76
2022/10/28 14:47:48;;;;;;;4.57;1.93;;;21.70;94.90;;;;;;4990796;28;20762;-76
2022/10/28 14:50:19;;;;;;;9.37;2.77;;;21.50;94.70;;;;;;4992861;28;20424;-77
2022/10/28 14:52:46;;;;;;;7.97;2.00;;;21.50;95.30;;;;;;4996828;28;20178;-75
2022/10/28 14:55:38;;;;;;;8.50;2.70;;;21.30;94.60;;;;;;4992372;28;20905;-76
2022/10/28 14:58:35;;;;;;;13.20;2.83;;;21.50;93.50;;;;;;4988349;28;20788;-77
2022/10/28 15:01:18;;;;;;;14.37;3.63;;;21.40;93.90;;;;;;4991930;28;20432;-76
2022/10/28 15:03:51;;;;;;;9.67;2.83;;;21.40;93.40;;;;;;4992398;28;20416;-76
2022/10/28 15:06:36;;;;;;;18.43;3.00;;;21.30;93.50;;;;;;4993062;28;20413;-77
2022/10/28 15:09:16;;;;;;;12.53;2.47;;;21.30;93.90;;;;;;4991451;28;20451;-76
2022/10/28 15:12:03;;;;;;;15.67;2.90;;;21.30;93.20;;;;;;4993712;28;20429;-76
2022/10/28 15:14:39;;;;;;;10.73;2.87;;;21.10;93.50;;;;;;4962839;28;21200;-76
2022/10/28 15:17:16;;;;;;;12.20;2.80;;;21.00;94.40;;;;;;4993143;28;20412;-76
2022/10/28 15:19:47;;;;;;;9.27;1.90;;;20.90;95.30;;;;;;4974209;28;20427;-75
2022/10/28 15:22:14;;;;;;;12.07;2.40;;;20.90;95.50;;;;;;4993076;28;20472;-77
2022/10/28 15:24:40;;;;;;;13.20;2.07;;;20.80;94.90;;;;;;4994210;28;20460;-77
2022/10/28 15:27:08;;;;;;;8.03;1.97;;;20.80;94.90;;;;;;4992827;28;20419;-77
2022/10/28 15:29:34;;;;;;;12.23;2.27;;;20.80;95.50;;;;;;4992667;28;20250;-77
2022/10/28 15:32:12;;;;;;;11.40;2.33;;;20.80;94.50;;;;;;4992423;28;21024;-77
2022/10/28 15:34:38;;;;;;;12.10;3.50;;;20.80;96.30;;;;;;4991817;28;20260;-77
2022/10/28 15:37:04;;;;;;;21.53;2.90;;;20.80;93.90;;;;;;4993192;28;20421;-77
2022/10/28 15:39:30;;;;;;;12.23;2.80;;;20.80;93.90;;;;;;4993958;28;20449;-77
2022/10/28 15:42:35;;;;;;;15.43;2.60;;;20.90;93.10;;;;;;4976090;28;20831;-77
2022/10/28 15:45:01;;;;;;;10.63;2.43;;;;;;;;;;4992978;28;20240;-77
2022/10/28 15:47:27;;;;;;;13.03;2.67;;;;;;;;;;4993097;28;21094;-77
2022/10/28 15:49:59;;;;;;;9.33;1.93;;;20.90;93.10;;;;;;4976125;28;20409;-77
2022/10/28 15:52:47;;;;;;;8.07;2.20;;;20.80;93.00;;;;;;4990703;28;20802;-76
2022/10/28 15:55:18;;;;;;;5.30;2.20;;;20.90;92.40;;;;;;4986593;28;20507;-75
2022/10/28 15:57:55;;;;;;;11.77;2.00;;;20.90;92.70;;;;;;4989882;28;20403;-76
2022/10/28 16:00:24;;;;;;;10.50;2.00;;;20.80;92.60;;;;;;4989560;28;20412;-75
2022/10/28 16:02:57;;;;;;;13.63;2.23;;;20.80;93.10;;;;;;4990713;28;20887;-77
2022/10/28 16:05:44;;;;;;;8.30;2.33;;;20.60;93.00;;;;;;4973251;28;20453;-76
2022/10/28 16:08:36;;;;;;;8.40;3.13;;;20.60;93.80;;;;;;4990303;28;20500;-76
2022/10/28 16:11:05;;;;;;;6.63;2.17;;;20.60;93.40;;;;;;4985421;28;20499;-76
2022/10/28 16:13:35;;;;;;;7.23;2.17;;;20.50;93.10;;;;;;4988780;28;20417;-76
2022/10/28 16:16:06;;;;;;;4.60;1.90;;;20.70;92.10;;;;;;4987973;28;20459;-77
2022/10/28 16:18:37;;;;;;;9.47;2.50;;;20.60;92.60;;;;;;4984823;28;21219;-77
2022/10/28 16:21:03;;;;;;;12.73;2.73;;;20.50;92.90;;;;;;4988375;28;20440;-77
2022/10/28 16:23:35;;;;;;;10.77;2.23;;;20.50;93.10;;;;;;4988245;28;20432;-78
2022/10/28 16:26:01;;;;;;;5.63;2.20;;;20.40;93.50;;;;;;4990345;28;20479;-77
2022/10/28 16:28:27;;;;;;;5.60;1.60;;;20.30;93.00;;;;;;4973979;28;20413;-77
2022/10/28 16:30:55;;;;;;;11.60;2.10;;;20.40;93.00;;;;;;4994192;28;20220;-77
2022/10/28 16:33:35;;;;;;;5.40;1.97;;;20.50;92.20;;;;;;4975861;28;20417;-77
2022/10/28 16:36:01;;;;;;;5.63;1.73;;;20.50;92.20;;;;;;4980750;28;20855;-77
2022/10/28 16:38:29;;;;;;;8.83;2.57;;;20.30;92.80;;;;;;4989278;28;20425;-77
2022/10/28 16:40:55;;;;;;;5.00;1.53;;;20.10;94.10;;;;;;4991746;28;20463;-77
2022/10/28 16:43:23;;;;;;;5.90;1.87;;;20.20;92.80;;;;;;4989434;28;20839;-77
2022/10/28 16:45:51;;;;;;;4.00;2.30;;;20.20;93.50;;;;;;4990615;28;20521;-77
2022/10/28 16:48:17;;;;;;;76.70;68.43;;;20.00;93.50;;;;;;4992151;28;20420;-77
2022/10/28 17:09:52;;;;;;;6.50;2.10;;;;;;;;;;4969609;28;20517;-74
2022/10/28 17:12:20;;;;;;;3.73;1.30;;;20.00;92.60;;;;;;4966548;28;20491;-76
2022/10/28 17:14:46;;;;;;;13.30;2.33;;;20.00;92.20;;;;;;4989735;28;20928;-77
2022/10/28 17:17:12;;;;;;;10.83;2.50;;;20.00;92.00;;;;;;4986117;28;20424;-76
2022/10/28 17:19:38;;;;;;;4.37;2.10;;;20.00;91.90;;;;;;4989531;28;20181;-76
2022/10/28 17:22:05;;;;;;;6.07;3.13;;;19.90;92.50;;;;;;4983425;28;20214;-76
2022/10/28 17:24:31;;;;;;;4.10;1.70;;;19.80;92.40;;;;;;4990563;28;20814;-76
2022/10/28 17:26:57;;;;;;;8.00;3.83;;;19.80;92.70;;;;;;4990334;28;20415;-76
2022/10/28 17:29:22;;;;;;;8.57;3.83;;;19.70;92.90;;;;;;4988140;28;20521;-76
2022/10/28 17:31:48;;;;;;;10.60;3.33;;;19.60;93.40;;;;;;4989055;28;20261;-76
2022/10/28 17:34:13;;;;;;;7.40;3.90;;;19.50;94.00;;;;;;4989621;28;20182;-77
2022/10/28 17:36:39;;;;;;;6.63;2.63;;;19.40;93.90;;;;;;4982829;28;20209;-77
2022/10/28 17:39:04;;;;;;;9.47;1.70;;;19.50;93.80;;;;;;4991053;28;20603;-78
2022/10/28 17:41:30;;;;;;;7.70;2.20;;;19.50;93.90;;;;;;4983200;28;20240;-77
2022/10/28 17:43:55;;;;;;;6.93;2.40;;;19.50;94.10;;;;;;4982581;28;20189;-77
2022/10/28 17:46:21;;;;;;;8.40;2.00;;;19.40;94.80;;;;;;4976909;28;20185;-77
2022/10/28 17:48:47;;;;;;;5.77;2.03;;;;;;;;;;4982791;28;20185;-76
2022/10/28 17:51:13;;;;;;;13.03;2.03;;;;;;;;;;4986153;28;21099;-77
2022/10/28 17:53:39;;;;;;;6.23;2.30;;;19.30;94.60;;;;;;4986759;28;20397;-76
2022/10/28 17:56:06;;;;;;;4.30;1.70;;;19.20;94.70;;;;;;4988655;28;20224;-76
2022/10/28 17:58:32;;;;;;;6.43;2.00;;;19.30;94.20;;;;;;4978753;28;20190;-78
2022/10/28 18:01:06;;;;;;;2.60;1.57;;;19.40;94.20;;;;;;4990099;28;20455;-78
2022/10/28 18:03:37;;;;;;;12.57;2.50;;;19.40;93.80;;;;;;4991045;28;20514;-78
2022/10/28 18:06:04;;;;;;;9.13;1.40;;;19.40;93.70;;;;;;4988162;28;20468;-79
2022/10/28 18:08:33;;;;;;;13.80;1.80;;;19.30;94.40;;;;;;4995823;28;20471;-79
2022/10/28 18:10:59;;;;;;;6.90;2.10;;;19.10;95.50;;;;;;4983550;28;20527;-79
2022/10/28 18:13:29;;;;;;;8.67;1.83;;;19.00;95.30;;;;;;4984774;28;20527;-79
2022/10/28 18:15:56;;;;;;;4.80;1.87;;;18.90;95.80;;;;;;4984610;28;20177;-79
2022/10/28 18:18:24;;;;;;;6.00;1.67;;;18.80;95.90;;;;;;4979015;28;21013;-79
2022/10/28 18:20:53;;;;;;;5.60;3.07;;;19.00;95.30;;;;;;4976418;28;20456;-77
2022/10/28 18:23:20;;;;;;;10.83;2.07;;;18.90;95.70;;;;;;4988037;28;20433;-78
2022/10/28 18:25:45;;;;;;;8.97;2.30;;;18.80;95.70;;;;;;4983439;28;20460;-77
2022/10/28 18:28:11;;;;;;;4.53;2.00;;;;;;;;;;4993878;28;20478;-77
2022/10/28 18:30:37;;;;;;;4.77;1.73;;;18.70;96.00;;;;;;4991666;28;20895;-78
2022/10/28 18:33:02;;;;;;;4.37;1.80;;;18.80;96.00;;;;;;4993415;28;20178;-77
2022/10/28 18:35:28;;;;;;;7.87;1.90;;;18.70;96.00;;;;;;4992272;28;20540;-77
2022/10/28 18:37:54;;;;;;;8.83;2.17;;;18.70;96.30;;;;;;4991504;28;20280;-78
2022/10/28 18:40:19;;;;;;;10.73;3.10;;;;;;;;;;4993946;28;20692;-78
2022/10/28 18:42:45;;;;;;;9.47;2.57;;;18.60;96.30;;;;;;4992369;28;20536;-78
2022/10/28 18:45:10;;;;;;;5.97;1.90;;;18.80;95.90;;;;;;4983502;28;20673;-77
2022/10/28 18:47:36;;;;;;;5.17;2.23;;;18.80;95.70;;;;;;4991889;28;20265;-77
2022/10/28 18:50:03;;;;;;;10.20;2.00;;;18.80;96.00;;;;;;4982292;28;20661;-77
2022/10/28 18:52:28;;;;;;;8.97;1.60;;;18.80;95.70;;;;;;4989679;28;20236;-77
2022/10/28 18:54:54;;;;;;;5.37;1.77;;;;;;;;;;4974319;28;20565;-77
2022/10/28 18:57:20;;;;;;;7.63;1.73;;;19.00;95.40;;;;;;4988154;28;20284;-77
2022/10/28 18:59:46;;;;;;;8.70;2.33;;;18.90;95.50;;;;;;4991297;28;20265;-77
2022/10/28 19:02:11;;;;;;;10.17;2.57;;;18.80;95.90;;;;;;4991685;28;20575;-77
2022/10/28 19:04:37;;;;;;;6.30;2.00;;;18.80;96.00;;;;;;4985940;28;20296;-76
2022/10/28 19:07:02;;;;;;;11.73;2.53;;;18.90;95.50;;;;;;4976960;28;20556;-77
2022/10/28 19:09:28;;;;;;;7.73;1.70;;;18.80;95.70;;;;;;4991439;28;20190;-78
2022/10/28 19:11:53;;;;;;;13.33;2.20;;;18.80;95.90;;;;;;4992327;28;20213;-78
2022/10/28 19:14:19;;;;;;;9.53;3.30;;;18.80;95.50;;;;;;4993337;28;20262;-78
2022/10/28 19:16:45;;;;;;;6.27;1.93;;;;;;;;;;4992331;28;20252;-77
2022/10/28 19:19:10;;;;;;;10.63;3.37;;;18.90;94.90;;;;;;4992951;28;20217;-77
2022/10/28 19:21:36;;;;;;;9.97;2.43;;;19.00;94.50;;;;;;4993363;28;20713;-76
2022/10/28 19:24:02;;;;;;;3.30;1.30;;;18.90;95.00;;;;;;4992876;28;20186;-76
2022/10/28 19:26:29;;;;;;;13.63;2.37;;;18.80;95.20;;;;;;4993367;28;20186;-77
2022/10/28 19:28:55;;;;;;;7.07;1.83;;;;;;;;;;4992545;28;20182;-80
2022/10/28 19:31:23;;;;;;;3.37;2.10;;;18.60;95.90;;;;;;4990853;28;20924;-77
2022/10/28 19:33:50;;;;;;;5.70;2.07;;;18.60;95.90;;;;;;4992224;28;20269;-78
2022/10/28 19:36:20;;;;;;;7.23;1.80;;;18.60;96.30;;;;;;4990479;28;20431;-77
2022/10/28 19:38:48;;;;;;;9.83;1.80;;;18.60;96.00;;;;;;4990807;28;20420;-77
2022/10/28 19:41:16;;;;;;;8.20;2.23;;;18.50;96.20;;;;;;4991931;28;20443;-78
2022/10/28 19:43:43;;;;;;;8.23;1.90;;;18.70;95.90;;;;;;4991849;28;20919;-77
2022/10/28 19:46:12;;;;;;;6.00;1.87;;;18.60;96.30;;;;;;4991064;28;21190;-77
2022/10/28 19:48:39;;;;;;;5.23;2.20;;;18.50;96.20;;;;;;4991044;28;20453;-77
2022/10/28 19:51:05;;;;;;;8.20;2.10;;;18.50;96.30;;;;;;4991179;28;20429;-76
2022/10/28 19:53:31;;;;;;;7.50;2.20;;;18.60;96.30;;;;;;4991727;28;20416;-76
2022/10/28 19:55:59;;;;;;;7.10;2.33;;;18.50;96.30;;;;;;4992003;28;20421;-77
2022/10/28 19:58:24;;;;;;;10.83;2.40;;;18.60;96.30;;;;;;4991335;28;20182;-77
2022/10/28 20:01:03;;;;;;;9.27;2.20;;;18.60;96.30;;;;;;4991314;28;20463;-77
2022/10/28 20:03:28;;;;;;;8.00;2.10;;;18.40;96.30;;;;;;4991487;28;20424;-78
2022/10/28 20:05:58;;;;;;;6.97;2.40;;;18.40;96.30;;;;;;4993244;28;20468;-77
2022/10/28 20:08:24;;;;;;;4.80;2.23;;;18.40;96.30;;;;;;4992997;28;20181;-77
2022/10/28 20:11:01;;;;;;;12.57;2.27;;;18.40;96.30;;;;;;4993582;28;20437;-77
2022/10/28 20:13:27;;;;;;;7.57;1.83;;;18.30;96.30;;;;;;4992551;28;20657;-77
2022/10/28 20:15:53;;;;;;;10.20;2.17;;;18.40;96.30;;;;;;4993350;28;20420;-76
2022/10/28 20:18:19;;;;;;;6.17;1.57;;;18.30;96.30;;;;;;4992896;28;20208;-77
2022/10/28 20:20:44;;;;;;;8.53;1.97;;;18.20;96.30;;;;;;4992956;28;20491;-76